Time;durP1;ratioP1;P1;durP2;ratioP2;P2;SDS_P1;SDS_P2;PMS_P1;PMS_P2;Temp;Humidity;BMP_temperature;BMP_pressure;BME280_temperature;BME280_humidity;BME280_pressure;Samples;Min_cycle;Max_cycle;Signal;HPM_P1;HPM_P2
2022/01/22 00:01:46;;;;;;;1.10;0.77;;;18.20;49.80;;;;;;5911306;24;20156;-88
2022/01/22 00:04:16;;;;;;;1.10;0.80;;;18.20;50.00;;;;;;5958226;24;20168;-89
2022/01/22 00:06:44;;;;;;;0.95;0.60;;;18.20;50.00;;;;;;5963012;23;20154;-88
2022/01/22 00:09:18;;;;;;;1.35;0.80;;;18.20;49.90;;;;;;6081904;23;20184;-89
2022/01/22 00:12:00;;;;;;;2.10;0.90;;;18.20;49.90;;;;;;6082248;23;20157;-89
2022/01/22 00:14:30;;;;;;;1.95;0.85;;;18.20;49.90;;;;;;6081885;23;20160;-89
2022/01/22 00:17:09;;;;;;;0.70;0.70;;;18.30;49.90;;;;;;6034670;23;20161;-88
2022/01/22 00:19:38;;;;;;;1.65;0.90;;;18.20;49.80;;;;;;6062289;23;20156;-88
2022/01/22 00:22:11;;;;;;;0.95;0.68;;;18.20;49.80;;;;;;6034407;23;20167;-88
2022/01/22 00:24:39;;;;;;;1.15;0.75;;;18.30;50.00;;;;;;6050283;23;20186;-88
2022/01/22 00:27:14;;;;;;;1.17;0.73;;;18.20;49.90;;;;;;6141425;23;20196;-88
2022/01/22 00:29:43;;;;;;;1.00;0.82;;;18.20;49.90;;;;;;6116777;23;20182;-88
2022/01/22 00:32:09;;;;;;;1.33;0.70;;;18.20;49.80;;;;;;6108169;23;20152;-88
2022/01/22 00:34:37;;;;;;;0.98;0.80;;;18.20;49.90;;;;;;6087919;23;20174;-88
2022/01/22 00:37:03;;;;;;;2.92;0.88;;;18.20;50.00;;;;;;6087796;23;20211;-88
2022/01/22 00:39:33;;;;;;;0.90;0.70;;;18.20;49.80;;;;;;6094489;23;20160;-88
2022/01/22 00:42:02;;;;;;;0.68;0.68;;;18.20;49.70;;;;;;6117747;23;20131;-88
2022/01/22 00:44:29;;;;;;;1.00;0.70;;;18.20;50.00;;;;;;6117100;23;20170;-88
2022/01/22 00:47:00;;;;;;;0.88;0.80;;;18.20;49.80;;;;;;6093274;23;20175;-88
2022/01/22 00:49:29;;;;;;;2.95;0.93;;;18.30;49.70;;;;;;6082847;23;20523;-88
2022/01/22 00:51:55;;;;;;;1.70;1.08;;;18.20;49.80;;;;;;6057807;23;20230;-89
2022/01/22 00:54:21;;;;;;;1.25;0.70;;;18.20;49.70;;;;;;6058627;23;20216;-88
2022/01/22 00:56:47;;;;;;;1.95;0.63;;;18.20;49.70;;;;;;6057443;23;20805;-89
2022/01/22 00:59:15;;;;;;;0.80;0.70;;;18.20;49.60;;;;;;6034292;23;20180;-88
2022/01/22 01:01:40;;;;;;;2.08;0.90;;;18.20;49.70;;;;;;6045037;23;20154;-88
2022/01/22 01:04:11;;;;;;;1.20;0.80;;;18.20;49.90;;;;;;6043761;23;20161;-88
2022/01/22 01:06:44;;;;;;;0.95;0.70;;;18.20;49.80;;;;;;6018892;23;20154;-88
2022/01/22 01:09:13;;;;;;;1.48;0.98;;;18.20;49.60;;;;;;6020369;23;20221;-88
2022/01/22 01:11:49;;;;;;;0.98;0.82;;;18.20;49.70;;;;;;6043543;23;20659;-88
2022/01/22 01:14:22;;;;;;;0.80;0.63;;;18.20;49.40;;;;;;6017649;23;20155;-88
2022/01/22 01:17:10;;;;;;;1.17;0.80;;;18.20;49.80;;;;;;6018491;23;20151;-88
2022/01/22 01:33:52;;;;;;;1.02;0.77;;;18.20;49.80;;;;;;6084306;23;20155;-88
2022/01/22 01:36:21;;;;;;;0.77;0.70;;;18.10;49.60;;;;;;6083822;23;20161;-88
2022/01/22 01:38:53;;;;;;;2.15;0.95;;;18.20;50.00;;;;;;6050392;23;20151;-88
2022/01/22 01:41:30;;;;;;;1.98;0.75;;;18.10;49.80;;;;;;6076553;23;20217;-88
2022/01/22 01:44:02;;;;;;;1.10;0.80;;;18.10;49.70;;;;;;6074407;23;20192;-88
2022/01/22 01:46:30;;;;;;;0.95;0.60;;;18.10;49.50;;;;;;6053625;23;20154;-88
2022/01/22 01:49:06;;;;;;;2.38;0.68;;;18.10;49.80;;;;;;6052593;23;20185;-88
2022/01/22 01:51:41;;;;;;;0.80;0.80;;;18.20;49.80;;;;;;6052574;23;20166;-89
2022/01/22 01:54:26;;;;;;;2.33;1.00;;;18.10;49.40;;;;;;6076871;23;20156;-89
2022/01/22 01:59:36;;;;;;;1.45;0.80;;;18.10;49.60;;;;;;6055456;23;20628;-88
2022/01/22 02:02:03;;;;;;;1.55;0.73;;;18.00;49.60;;;;;;6028856;23;20708;-88
2022/01/22 02:04:33;;;;;;;1.67;0.80;;;18.10;49.60;;;;;;6052872;23;20617;-89
2022/01/22 02:07:05;;;;;;;0.93;0.70;;;18.00;49.60;;;;;;6029442;23;20161;-88
2022/01/22 02:09:41;;;;;;;1.50;0.70;;;18.10;49.70;;;;;;6028322;23;20192;-89
2022/01/22 02:25:35;;;;;;;1.13;0.60;;;18.10;49.60;;;;;;6142021;23;20163;-88
2022/01/22 02:28:05;;;;;;;1.30;0.73;;;18.10;49.50;;;;;;6114899;23;20152;-89
2022/01/22 02:30:39;;;;;;;1.55;0.80;;;18.10;49.40;;;;;;6115045;23;20575;-89
2022/01/22 02:33:26;;;;;;;1.52;1.15;;;18.10;49.60;;;;;;6140205;23;20205;-88
2022/01/22 02:36:01;;;;;;;0.90;0.70;;;18.10;49.60;;;;;;6118164;23;20221;-89
2022/01/22 02:38:40;;;;;;;1.40;0.80;;;18.00;49.80;;;;;;6140806;23;20143;-88
2022/01/22 02:41:13;;;;;;;0.98;0.70;;;18.00;49.70;;;;;;6142447;23;20142;-88
2022/01/22 02:43:42;;;;;;;1.42;0.80;;;18.00;49.50;;;;;;6104655;23;20228;-89
2022/01/22 02:46:26;;;;;;;0.90;0.80;;;18.00;49.50;;;;;;6090853;23;20149;-88
2022/01/22 02:48:58;;;;;;;1.02;0.75;;;18.10;49.60;;;;;;6032868;23;20218;-89
2022/01/22 02:51:34;;;;;;;2.13;0.80;;;18.00;49.70;;;;;;6031352;23;20162;-89
2022/01/22 02:54:14;;;;;;;1.38;0.73;;;18.10;49.20;;;;;;6056287;23;20154;-89
2022/01/22 02:56:54;;;;;;;2.15;0.88;;;18.00;49.60;;;;;;6031935;23;20138;-89
2022/01/22 02:59:23;;;;;;;1.73;0.90;;;18.00;49.60;;;;;;6009461;23;20227;-89
2022/01/22 03:02:02;;;;;;;2.00;0.90;;;17.90;49.60;;;;;;5924176;24;20213;-89
2022/01/22 03:05:08;;;;;;;1.83;0.73;;;18.00;49.70;;;;;;5877803;24;20181;-88
2022/01/22 03:08:15;;;;;;;1.77;0.70;;;18.00;50.00;;;;;;5866801;24;20165;-87
2022/01/22 03:10:51;;;;;;;0.95;0.82;;;18.00;49.60;;;;;;5813962;24;20222;-89
2022/01/22 03:14:34;;;;;;;1.40;0.70;;;18.00;49.40;;;;;;5787340;24;20163;-89
2022/01/22 03:17:12;;;;;;;1.90;0.80;;;18.00;49.60;;;;;;5727150;24;20194;-90
2022/01/22 03:20:20;;;;;;;1.73;0.77;;;18.00;49.60;;;;;;5725282;25;20163;-88
2022/01/22 03:23:08;;;;;;;1.77;0.82;;;18.00;49.40;;;;;;5735755;25;20209;-88
2022/01/22 03:28:58;;;;;;;1.13;0.80;;;18.00;49.50;;;;;;5736570;25;20194;-89
2022/01/22 03:31:36;;;;;;;1.45;0.70;;;18.00;49.70;;;;;;5703351;25;20164;-88
2022/01/22 03:34:16;;;;;;;1.38;0.70;;;18.00;49.80;;;;;;5755208;25;20165;-89
2022/01/22 03:36:52;;;;;;;1.02;0.60;;;18.00;49.80;;;;;;5786674;24;20224;-88
2022/01/22 03:39:39;;;;;;;1.42;0.80;;;17.90;49.60;;;;;;5719681;24;20181;-89
2022/01/22 03:42:18;;;;;;;1.00;0.70;;;18.00;49.50;;;;;;5693397;25;20159;-90
2022/01/22 03:44:50;;;;;;;1.58;0.82;;;18.00;49.70;;;;;;5716482;25;20178;-89
2022/01/22 03:47:25;;;;;;;0.98;0.70;;;18.00;49.70;;;;;;5764236;24;20164;-89
2022/01/22 03:50:06;;;;;;;1.10;0.85;;;17.90;49.70;;;;;;5835220;24;20187;-89
2022/01/22 03:52:52;;;;;;;1.10;0.88;;;17.90;49.90;;;;;;5866251;24;20155;-89
2022/01/22 03:55:49;;;;;;;1.85;0.80;;;17.80;49.80;;;;;;5851352;24;20164;-89
2022/01/22 03:58:28;;;;;;;;;;;;;;;;;;;;;
2022/01/22 04:02:15;;;;;;;1.83;0.70;;;17.90;49.70;;;;;;5787156;24;20160;-89
2022/01/22 04:05:34;;;;;;;1.20;0.88;;;17.90;49.80;;;;;;5787692;24;20157;-89
2022/01/22 04:08:28;;;;;;;1.65;0.93;;;17.90;49.40;;;;;;5818760;24;20198;-89
2022/01/22 04:11:10;;;;;;;0.85;0.77;;;17.90;49.60;;;;;;5879893;24;20171;-88
2022/01/22 04:14:00;;;;;;;1.38;0.80;;;17.90;49.70;;;;;;5866722;24;20142;-89
2022/01/22 04:16:58;;;;;;;1.13;0.90;;;17.90;49.50;;;;;;5851027;24;20168;-89
2022/01/22 04:25:43;;;;;;;1.27;0.70;;;17.90;49.60;;;;;;5866733;24;20163;-89
2022/01/22 04:28:34;;;;;;;1.75;0.95;;;17.90;49.40;;;;;;5845171;24;20222;-90
2022/01/22 04:31:20;;;;;;;2.75;0.75;;;17.90;49.50;;;;;;5881653;24;20177;-89
2022/01/22 04:33:58;;;;;;;1.48;0.82;;;17.90;49.50;;;;;;5830790;24;20163;-89
2022/01/22 04:36:40;;;;;;;0.77;0.70;;;17.90;49.40;;;;;;5866628;24;20162;-89
2022/01/22 04:39:13;;;;;;;2.05;0.80;;;17.90;49.50;;;;;;5868268;24;20160;-88
2022/01/22 04:41:42;;;;;;;0.75;0.60;;;17.90;49.50;;;;;;5858546;24;20171;-89
2022/01/22 04:44:23;;;;;;;1.38;0.88;;;17.90;49.70;;;;;;5865693;24;20174;-90
2022/01/22 04:47:13;;;;;;;1.55;0.93;;;17.90;49.60;;;;;;5921353;24;20165;-89
2022/01/22 04:52:41;;;;;;;1.67;0.90;;;17.90;49.60;;;;;;5968484;24;20254;-89
2022/01/22 04:55:14;;;;;;;0.98;0.70;;;17.80;49.40;;;;;;5927755;24;20165;-89
2022/01/22 04:58:04;;;;;;;0.75;0.70;;;17.90;49.60;;;;;;5954347;24;20168;-89
2022/01/22 05:00:51;;;;;;;1.02;0.90;;;17.90;49.60;;;;;;5928536;24;20178;-88
2022/01/22 05:03:32;;;;;;;0.88;0.60;;;17.90;49.50;;;;;;5894917;24;20180;-89
2022/01/22 05:06:06;;;;;;;1.30;0.90;;;17.90;49.40;;;;;;5922535;24;20165;-89
2022/01/22 05:08:42;;;;;;;0.90;0.60;;;17.90;50.00;;;;;;5922337;24;20189;-90
2022/01/22 05:11:19;;;;;;;1.63;1.10;;;17.90;49.40;;;;;;5852642;24;20149;-88
2022/01/22 05:14:07;;;;;;;1.15;0.70;;;17.90;49.50;;;;;;5870301;24;20154;-89
2022/01/22 05:16:53;;;;;;;0.80;0.80;;;17.90;49.50;;;;;;5759287;24;20174;-89
2022/01/22 05:19:53;;;;;;;1.88;0.68;;;17.80;49.40;;;;;;5743137;24;20163;-89
2022/01/22 05:22:56;;;;;;;1.35;0.70;;;17.80;49.40;;;;;;5722556;25;20163;-90
2022/01/22 05:25:33;;;;;;;1.60;0.65;;;17.80;49.40;;;;;;5693157;25;20151;-89
2022/01/22 05:28:57;;;;;;;1.83;0.90;;;17.80;49.40;;;;;;5710751;25;20181;-88
2022/01/22 05:31:23;;;;;;;1.40;0.85;;;17.80;49.40;;;;;;5704239;25;20166;-88
2022/01/22 05:38:57;;;;;;;0.93;0.77;;;17.70;49.60;;;;;;5820625;24;20596;-88
2022/01/22 05:41:23;;;;;;;1.30;0.80;;;17.80;49.60;;;;;;5826128;24;20267;-88
2022/01/22 05:43:49;;;;;;;0.93;0.70;;;17.80;49.50;;;;;;5838929;24;20166;-88
2022/01/22 05:46:22;;;;;;;1.23;0.80;;;17.80;49.60;;;;;;5853016;24;20144;-88
2022/01/22 05:48:49;;;;;;;1.50;0.95;;;17.80;49.80;;;;;;6001229;23;20737;-88
2022/01/22 05:51:17;;;;;;;1.20;0.80;;;17.70;49.80;;;;;;6074108;23;20633;-88
2022/01/22 05:54:34;;;;;;;2.17;0.77;;;17.80;49.80;;;;;;6102701;23;20155;-88
2022/01/22 06:02:12;;;;;;;1.85;0.70;;;17.80;49.40;;;;;;6120797;23;20167;-88
2022/01/22 06:04:38;;;;;;;1.15;0.70;;;17.80;49.50;;;;;;6116812;23;20194;-88
2022/01/22 06:07:05;;;;;;;1.08;0.70;;;17.90;49.40;;;;;;6138285;23;20164;-88
2022/01/22 06:10:28;;;;;;;2.15;0.80;;;17.80;49.60;;;;;;6112603;23;20167;-89
2022/01/22 06:13:44;;;;;;;1.20;0.90;;;17.80;49.70;;;;;;6099831;23;20180;-89
2022/01/22 06:16:13;;;;;;;1.52;0.90;;;17.80;49.70;;;;;;6010076;23;20634;-87
2022/01/22 06:18:39;;;;;;;1.55;0.85;;;17.80;49.40;;;;;;5992323;23;20190;-88
2022/01/22 06:21:09;;;;;;;1.23;0.80;;;17.70;49.40;;;;;;5991590;23;20179;-88
2022/01/22 06:23:36;;;;;;;0.85;0.75;;;17.80;49.40;;;;;;5992270;23;20158;-88
2022/01/22 06:26:11;;;;;;;1.58;0.98;;;17.80;49.30;;;;;;5992208;23;20158;-88
2022/01/22 06:28:38;;;;;;;1.42;0.90;;;17.80;49.50;;;;;;5969123;23;20186;-88
2022/01/22 06:31:04;;;;;;;0.95;0.80;;;17.80;49.30;;;;;;5991916;23;20166;-88
2022/01/22 06:33:42;;;;;;;1.45;0.60;;;17.80;49.60;;;;;;5992358;23;20155;-88
2022/01/22 06:36:21;;;;;;;1.02;0.80;;;17.70;49.40;;;;;;5968262;23;20215;-88
2022/01/22 06:39:15;;;;;;;1.88;0.93;;;17.80;49.60;;;;;;5970295;23;20235;-88
2022/01/22 06:45:33;;;;;;;1.48;0.93;;;17.80;49.40;;;;;;5967247;24;20167;-86
2022/01/22 06:48:05;;;;;;;0.60;0.60;;;17.60;49.50;;;;;;5884413;24;20710;-86
2022/01/22 06:50:31;;;;;;;0.93;0.70;;;17.70;49.80;;;;;;5933818;24;20152;-86
2022/01/22 06:52:59;;;;;;;2.22;0.95;;;17.60;49.70;;;;;;5916612;24;20255;-86
2022/01/22 06:55:41;;;;;;;2.70;1.13;;;17.70;50.20;;;;;;5939519;24;20163;-87
2022/01/22 06:58:07;;;;;;;1.67;0.60;;;17.70;49.80;;;;;;5916310;24;20188;-87
2022/01/22 07:00:32;;;;;;;1.15;0.85;;;17.70;49.70;;;;;;5894974;24;20156;-86
2022/01/22 07:03:03;;;;;;;1.00;0.75;;;17.70;49.60;;;;;;5893966;24;20163;-87
2022/01/22 07:05:29;;;;;;;2.35;0.88;;;17.70;49.70;;;;;;5895714;24;20159;-86
2022/01/22 07:07:56;;;;;;;1.17;1.00;;;17.70;49.50;;;;;;5916463;24;20173;-87
2022/01/22 07:10:23;;;;;;;0.98;0.70;;;17.70;49.50;;;;;;5914763;24;20167;-87
2022/01/22 07:12:48;;;;;;;0.70;0.70;;;17.70;49.50;;;;;;5921812;24;20234;-86
2022/01/22 07:15:20;;;;;;;1.05;0.70;;;17.70;49.30;;;;;;5952637;23;20151;-86
2022/01/22 07:17:46;;;;;;;0.77;0.70;;;17.70;49.10;;;;;;6000807;23;20151;-86
2022/01/22 07:20:25;;;;;;;0.90;0.77;;;17.70;49.40;;;;;;5977340;23;20521;-86
2022/01/22 07:23:14;;;;;;;1.33;0.80;;;17.80;49.10;;;;;;5957072;23;20159;-86
2022/01/22 07:25:44;;;;;;;1.13;0.70;;;17.90;49.00;;;;;;6122379;23;20211;-86
2022/01/22 07:28:11;;;;;;;1.40;1.00;;;17.70;49.10;;;;;;6145476;23;20161;-87
2022/01/22 07:30:39;;;;;;;0.85;0.60;;;17.80;48.40;;;;;;6145315;23;20139;-86
2022/01/22 07:33:12;;;;;;;1.30;0.82;;;17.80;49.10;;;;;;6145758;23;20131;-86
2022/01/22 07:35:41;;;;;;;0.93;0.80;;;17.80;49.00;;;;;;6121618;23;20169;-87
2022/01/22 07:38:08;;;;;;;1.50;0.95;;;17.80;49.30;;;;;;6142709;23;20583;-87
2022/01/22 07:40:34;;;;;;;0.98;0.85;;;17.80;49.10;;;;;;6111868;23;20171;-86
2022/01/22 07:43:01;;;;;;;1.95;0.93;;;17.80;49.00;;;;;;6111632;23;20201;-86
2022/01/22 07:45:26;;;;;;;1.27;0.90;;;17.80;49.00;;;;;;6136729;23;20185;-87
2022/01/22 07:47:52;;;;;;;1.00;0.75;;;17.80;49.10;;;;;;6137841;23;20186;-86
2022/01/22 07:50:18;;;;;;;1.85;0.73;;;17.80;48.90;;;;;;6137942;23;20178;-87
2022/01/22 07:52:46;;;;;;;2.35;0.80;;;17.80;48.60;;;;;;6138492;23;20142;-87
2022/01/22 07:55:12;;;;;;;1.40;0.80;;;17.90;48.10;;;;;;6138359;23;20154;-86
2022/01/22 07:57:53;;;;;;;1.50;1.02;;;17.90;48.10;;;;;;6116512;23;20211;-86
2022/01/22 08:00:19;;;;;;;1.67;0.80;;;18.00;47.90;;;;;;6138587;23;20201;-86
2022/01/22 08:02:47;;;;;;;0.75;0.70;;;18.00;48.10;;;;;;6090688;23;20234;-86
2022/01/22 08:05:17;;;;;;;2.90;0.65;;;18.00;48.10;;;;;;6117545;23;20187;-86
2022/01/22 08:07:44;;;;;;;1.15;0.60;;;18.00;47.80;;;;;;6092598;23;20163;-86
2022/01/22 08:10:18;;;;;;;1.98;0.90;;;18.10;47.70;;;;;;6091758;23;20178;-86
2022/01/22 08:12:49;;;;;;;1.33;0.70;;;18.20;47.30;;;;;;6093870;23;20147;-86
2022/01/22 08:15:16;;;;;;;1.13;0.70;;;18.10;47.30;;;;;;6120811;23;20155;-87
2022/01/22 08:17:43;;;;;;;1.17;0.88;;;18.20;47.50;;;;;;6119451;23;20135;-87
2022/01/22 08:20:16;;;;;;;1.00;0.80;;;18.20;47.40;;;;;;6095768;23;20456;-86
2022/01/22 08:22:44;;;;;;;1.98;0.75;;;18.20;47.00;;;;;;6119101;23;20311;-86
2022/01/22 08:25:11;;;;;;;1.00;0.60;;;18.30;47.20;;;;;;6095069;23;20152;-86
2022/01/22 08:28:52;;;;;;;2.00;0.90;;;18.20;47.00;;;;;;6094698;23;20178;-86
2022/01/22 08:30:30;;;;;;;1.83;0.80;;;18.30;47.40;;;;;;6128987;23;20160;-86
2022/01/22 08:38:19;;;;;;;0.95;0.65;;;18.30;46.80;;;;;;6058035;23;20157;-87
2022/01/22 08:40:48;;;;;;;0.90;0.70;;;18.20;47.00;;;;;;6055215;23;20198;-86
2022/01/22 08:43:18;;;;;;;2.42;0.85;;;18.30;46.80;;;;;;6030908;23;20166;-87
2022/01/22 08:45:44;;;;;;;3.15;0.57;;;18.30;46.80;;;;;;6052612;23;20209;-86
2022/01/22 08:48:10;;;;;;;2.22;1.00;;;18.30;46.70;;;;;;6029959;23;20153;-88
2022/01/22 08:50:43;;;;;;;2.15;0.80;;;18.30;46.40;;;;;;6051757;23;20137;-86
2022/01/22 08:53:11;;;;;;;1.70;0.90;;;18.40;46.40;;;;;;5943096;24;20160;-86
2022/01/22 08:56:00;;;;;;;1.75;0.80;;;18.30;46.00;;;;;;5943517;24;20156;-86
2022/01/22 08:58:33;;;;;;;3.00;1.00;;;18.40;46.50;;;;;;5948979;23;20202;-87
2022/01/22 09:01:01;;;;;;;3.60;0.90;;;18.40;47.10;;;;;;5916306;24;20339;-87
2022/01/22 09:03:29;;;;;;;5.10;0.95;;;18.50;46.70;;;;;;5944938;23;20150;-87
2022/01/22 09:05:56;;;;;;;5.00;1.02;;;18.50;46.10;;;;;;6023988;23;20244;-86
2022/01/22 09:08:24;;;;;;;3.58;0.68;;;18.50;45.20;;;;;;6023188;23;20198;-86
2022/01/22 09:10:50;;;;;;;3.08;0.82;;;18.50;45.40;;;;;;6024749;23;20277;-85
2022/01/22 09:13:16;;;;;;;4.32;0.93;;;18.50;45.80;;;;;;6024413;23;20253;-85
2022/01/22 09:15:44;;;;;;;6.22;0.90;;;18.60;46.80;;;;;;6003808;23;20170;-88
2022/01/22 09:18:11;;;;;;;1.85;0.85;;;18.60;46.70;;;;;;6029559;23;20146;-88
2022/01/22 09:23:06;;;;;;;1.83;0.93;;;18.50;46.70;;;;;;6017659;23;20138;-86
2022/01/22 09:25:35;;;;;;;3.05;1.00;;;18.60;46.10;;;;;;6019979;23;20267;-86
2022/01/22 09:28:05;;;;;;;1.15;0.80;;;18.70;46.90;;;;;;5996708;23;20178;-87
2022/01/22 09:30:40;;;;;;;2.38;0.90;;;18.60;45.40;;;;;;6021749;23;20218;-86
2022/01/22 09:33:11;;;;;;;5.82;0.85;;;18.60;45.70;;;;;;6063325;23;20152;-87
2022/01/22 09:35:39;;;;;;;2.83;1.00;;;18.70;46.10;;;;;;6055169;23;20165;-86
2022/01/22 09:38:12;;;;;;;6.78;0.90;;;18.70;46.00;;;;;;6054385;23;20484;-84
2022/01/22 09:40:38;;;;;;;2.38;0.80;;;18.70;45.80;;;;;;6057369;23;20149;-86
2022/01/22 09:43:04;;;;;;;4.47;0.70;;;18.60;45.80;;;;;;6058699;23;20157;-86
2022/01/22 09:45:33;;;;;;;3.58;0.93;;;18.70;46.30;;;;;;6053539;23;20561;-87
2022/01/22 09:48:14;;;;;;;2.90;0.95;;;18.70;45.20;;;;;;6081643;23;20137;-85
2022/01/22 09:50:57;;;;;;;4.32;1.10;;;18.70;45.60;;;;;;6139096;23;20622;-86
2022/01/22 09:53:26;;;;;;;3.47;0.88;;;18.70;46.10;;;;;;6168629;23;20139;-87
2022/01/22 09:56:00;;;;;;;2.92;0.93;;;18.70;45.90;;;;;;6143581;23;20607;-86
2022/01/22 09:58:31;;;;;;;3.65;0.93;;;18.70;45.90;;;;;;6104184;23;20593;-88
2022/01/22 10:01:24;;;;;;;7.32;1.10;;;18.80;46.50;;;;;;6058457;23;20180;-87
2022/01/22 10:03:52;;;;;;;3.72;1.17;;;18.70;46.10;;;;;;6076694;23;20137;-86
2022/01/22 10:06:30;;;;;;;5.15;1.42;;;18.70;46.80;;;;;;6051278;23;20277;-84
2022/01/22 10:09:09;;;;;;;5.43;1.17;;;18.70;46.50;;;;;;6051192;23;20180;-86
2022/01/22 10:11:38;;;;;;;4.25;1.00;;;18.70;46.80;;;;;;6056435;23;20164;-86
2022/01/22 10:14:07;;;;;;;6.82;1.00;;;18.70;46.20;;;;;;6076480;23;20169;-85
2022/01/22 10:16:49;;;;;;;4.85;1.05;;;18.70;47.20;;;;;;6079735;23;20137;-87
2022/01/22 10:19:19;;;;;;;4.80;1.00;;;18.70;47.00;;;;;;6028082;23;20222;-87
2022/01/22 10:21:55;;;;;;;5.32;0.82;;;18.60;47.60;;;;;;6058669;23;20221;-86
2022/01/22 10:24:49;;;;;;;8.77;1.10;;;18.60;46.90;;;;;;6085459;23;20204;-88
2022/01/22 10:27:39;;;;;;;4.20;1.17;;;18.60;47.40;;;;;;5975559;24;20175;-87
2022/01/22 10:31:09;;;;;;;;;;;;;;;;;;;;;
2022/01/22 10:40:36;;;;;;;3.13;1.00;;;18.70;47.10;;;;;;5862730;24;20208;-87
2022/01/22 10:43:47;;;;;;;1.70;0.68;;;18.70;47.30;;;;;;5835833;24;20205;-88
2022/01/22 10:49:24;;;;;;;4.00;0.95;;;18.70;48.00;;;;;;5821259;24;20616;-87
2022/01/22 10:52:24;;;;;;;3.95;0.90;;;18.70;47.60;;;;;;5787950;24;20221;-87
2022/01/22 10:54:53;;;;;;;4.10;0.88;;;18.70;47.80;;;;;;5788910;24;20144;-88
2022/01/22 10:57:24;;;;;;;2.08;0.90;;;18.70;47.70;;;;;;5784734;24;20163;-88
2022/01/22 10:59:55;;;;;;;3.78;1.20;;;18.70;48.00;;;;;;5817147;24;20199;-88
2022/01/22 11:02:44;;;;;;;2.72;0.80;;;18.70;47.70;;;;;;5857620;24;20159;-87
2022/01/22 11:05:11;;;;;;;2.72;1.00;;;18.70;48.10;;;;;;5859251;24;20218;-87
2022/01/22 11:07:53;;;;;;;;;;;;;;;;;;;;;
2022/01/22 11:10:22;;;;;;;1.17;0.90;;;18.70;48.00;;;;;;5779602;24;20231;-87
2022/01/22 11:12:55;;;;;;;2.67;0.90;;;18.80;48.50;;;;;;5801703;24;20255;-86
2022/01/22 11:15:21;;;;;;;5.00;1.08;;;18.70;49.00;;;;;;5802483;24;20160;-86
2022/01/22 11:17:55;;;;;;;3.67;0.90;;;18.80;48.20;;;;;;5843030;24;20169;-86
2022/01/22 11:20:33;;;;;;;1.48;0.90;;;18.80;48.40;;;;;;5860924;24;20158;-86
2022/01/22 11:22:59;;;;;;;5.95;1.08;;;18.80;48.30;;;;;;5829980;24;20173;-88
2022/01/22 11:25:32;;;;;;;2.10;0.85;;;18.80;48.20;;;;;;5883494;24;20158;-88
2022/01/22 11:28:12;;;;;;;3.28;0.77;;;18.80;48.50;;;;;;5857969;24;20214;-88
2022/01/22 11:30:46;;;;;;;1.58;0.90;;;18.90;49.10;;;;;;5896548;24;20169;-87
2022/01/22 11:33:21;;;;;;;3.28;0.90;;;18.90;48.50;;;;;;5859156;24;20154;-85
2022/01/22 11:36:02;;;;;;;2.25;0.90;;;18.80;48.60;;;;;;5887982;24;20156;-86
2022/01/22 11:38:40;;;;;;;1.98;0.80;;;18.80;47.80;;;;;;5914105;24;20160;-86
2022/01/22 11:41:21;;;;;;;2.55;0.95;;;18.80;48.00;;;;;;5891145;24;20176;-86
2022/01/22 11:44:12;;;;;;;5.35;1.10;;;18.80;48.30;;;;;;5931417;24;20171;-86
2022/01/22 11:46:51;;;;;;;5.00;1.10;;;18.80;47.50;;;;;;5950450;24;20172;-87
2022/01/22 11:49:22;;;;;;;7.38;1.30;;;18.90;47.70;;;;;;5928238;24;20203;-86
2022/01/22 11:52:16;;;;;;;7.05;1.60;;;18.90;48.00;;;;;;5920865;24;20156;-86
2022/01/22 11:55:08;;;;;;;7.25;1.10;;;18.90;48.20;;;;;;6003925;23;20150;-85
2022/01/22 11:57:38;;;;;;;6.68;1.27;;;18.80;48.00;;;;;;6046932;23;20212;-86
2022/01/22 12:00:27;;;;;;;12.93;1.60;;;18.80;47.80;;;;;;6057868;23;20256;-86
2022/01/22 12:03:19;;;;;;;19.42;2.40;;;18.80;48.00;;;;;;6060244;23;20216;-85
2022/01/22 12:06:10;;;;;;;24.38;2.30;;;18.80;47.90;;;;;;6039686;23;20180;-86
2022/01/22 12:09:15;;;;;;;12.45;1.98;;;18.80;47.90;;;;;;6098605;23;20233;-86
2022/01/22 12:14:49;;;;;;;14.15;1.80;;;18.80;47.70;;;;;;6167827;23;20242;-86
2022/01/22 12:17:25;;;;;;;6.90;1.70;;;18.80;48.80;;;;;;6143302;23;20176;-86
2022/01/22 12:20:18;;;;;;;10.25;1.88;;;18.80;48.30;;;;;;6101285;23;20170;-86
2022/01/22 12:22:51;;;;;;;6.55;2.00;;;18.80;48.90;;;;;;6180490;23;20173;-85
2022/01/22 12:25:41;;;;;;;11.70;1.42;;;18.80;48.80;;;;;;6147631;23;20486;-86
2022/01/22 12:28:13;;;;;;;12.80;1.38;;;18.80;48.80;;;;;;6149889;23;20154;-85
2022/01/22 12:30:44;;;;;;;12.55;1.70;;;18.90;48.80;;;;;;6142818;23;20385;-84
2022/01/22 12:33:38;;;;;;;9.80;1.52;;;18.80;48.70;;;;;;6141728;23;20127;-85
2022/01/22 12:36:10;;;;;;;10.93;1.75;;;18.80;49.00;;;;;;6170943;23;20151;-85
2022/01/22 12:38:46;;;;;;;14.38;2.08;;;18.90;48.60;;;;;;6117316;23;20560;-85
2022/01/22 12:44:27;;;;;;;17.50;2.03;;;18.90;48.50;;;;;;6078668;23;20489;-86
2022/01/22 12:46:58;;;;;;;8.45;1.75;;;18.90;48.20;;;;;;6053618;23;20149;-86
2022/01/22 12:49:30;;;;;;;11.23;1.95;;;18.90;48.00;;;;;;6057153;23;20197;-86
2022/01/22 12:51:58;;;;;;;9.88;1.70;;;18.90;47.90;;;;;;6059581;23;20169;-85
2022/01/22 12:54:35;;;;;;;10.65;1.60;;;18.90;48.30;;;;;;6038595;23;20526;-87
2022/01/22 12:57:07;;;;;;;12.20;1.77;;;18.90;48.90;;;;;;6042398;23;20161;-87
2022/01/22 13:00:08;;;;;;;10.98;1.48;;;18.90;48.40;;;;;;6060091;23;20533;-88
2022/01/22 13:02:41;;;;;;;14.73;1.98;;;18.90;48.20;;;;;;5990096;23;20161;-86
2022/01/22 13:05:08;;;;;;;14.10;1.80;;;18.90;48.70;;;;;;6034756;23;20158;-86
2022/01/22 13:07:40;;;;;;;11.32;1.88;;;18.90;48.60;;;;;;6004751;23;20165;-87
2022/01/22 13:10:07;;;;;;;11.35;1.80;;;18.90;48.60;;;;;;6004374;23;20189;-87
2022/01/22 13:12:45;;;;;;;14.52;1.75;;;18.90;48.40;;;;;;6031146;23;20177;-86
2022/01/22 13:15:12;;;;;;;11.95;1.75;;;18.90;48.60;;;;;;5923226;24;20163;-87
2022/01/22 13:17:40;;;;;;;12.32;1.60;;;19.00;48.50;;;;;;5903362;24;20152;-87
2022/01/22 13:20:22;;;;;;;20.10;1.65;;;18.90;48.70;;;;;;5926556;24;20508;-87
2022/01/22 13:22:56;;;;;;;20.65;1.83;;;19.00;48.60;;;;;;5924264;24;20168;-88
2022/01/22 13:25:30;;;;;;;15.82;2.25;;;18.90;49.10;;;;;;5919542;24;20236;-87
2022/01/22 13:28:11;;;;;;;10.93;1.80;;;18.90;48.80;;;;;;5937554;24;20179;-87
2022/01/22 13:30:44;;;;;;;8.20;1.35;;;19.00;49.30;;;;;;5991950;24;20170;-86
2022/01/22 13:33:34;;;;;;;5.93;1.40;;;18.90;48.90;;;;;;5992354;24;20159;-87
2022/01/22 13:36:14;;;;;;;14.55;1.80;;;19.00;48.80;;;;;;5958967;24;20235;-88
2022/01/22 13:39:58;;;;;;;12.80;1.80;;;19.00;48.70;;;;;;5969032;24;20163;-88
2022/01/22 13:47:54;;;;;;;9.60;1.45;;;19.00;49.60;;;;;;5991543;24;20515;-86
2022/01/22 13:50:25;;;;;;;8.80;1.67;;;19.00;49.80;;;;;;5955001;24;20192;-87
2022/01/22 13:52:52;;;;;;;11.50;1.58;;;19.00;49.50;;;;;;5938818;24;20234;-87
2022/01/22 13:55:58;;;;;;;16.58;2.28;;;19.00;49.10;;;;;;5964347;24;20160;-88
2022/01/22 13:58:32;;;;;;;8.63;1.73;;;19.00;49.40;;;;;;5952433;24;20323;-87
2022/01/22 14:01:06;;;;;;;7.97;1.52;;;19.00;49.30;;;;;;5947345;24;20212;-87
2022/01/22 14:03:44;;;;;;;12.38;2.00;;;19.00;49.20;;;;;;5944653;24;20161;-87
2022/01/22 14:06:33;;;;;;;13.30;1.50;;;19.00;49.00;;;;;;5954207;23;20169;-87
2022/01/22 14:09:50;;;;;;;9.82;1.52;;;19.00;48.70;;;;;;6020993;23;20218;-86
2022/01/22 14:12:15;;;;;;;8.38;1.60;;;19.00;49.20;;;;;;6002320;23;20170;-87
2022/01/22 14:15:03;;;;;;;8.73;1.45;;;19.00;48.90;;;;;;5973386;23;20151;-87
2022/01/22 14:17:37;;;;;;;8.68;1.65;;;19.00;48.70;;;;;;5976715;23;20175;-87
2022/01/22 14:20:10;;;;;;;8.40;1.85;;;19.00;49.00;;;;;;5976163;23;20181;-87
2022/01/22 14:23:09;;;;;;;9.98;1.83;;;19.00;48.90;;;;;;5912637;24;20161;-87
2022/01/22 14:25:54;;;;;;;6.65;1.55;;;19.00;49.20;;;;;;5909055;24;20157;-87
2022/01/22 14:28:23;;;;;;;19.92;1.80;;;19.10;49.00;;;;;;5892549;24;20160;-86
2022/01/22 14:30:49;;;;;;;11.77;2.00;;;19.00;48.70;;;;;;5934678;24;20260;-86
2022/01/22 14:33:18;;;;;;;3.53;1.40;;;19.00;48.90;;;;;;5976231;24;20152;-87
2022/01/22 14:36:03;;;;;;;14.95;1.92;;;19.00;48.00;;;;;;5975141;24;20159;-86
2022/01/22 14:39:13;;;;;;;15.30;1.83;;;19.00;48.80;;;;;;5943470;24;20238;-87
2022/01/22 14:44:37;;;;;;;5.57;1.23;;;19.00;47.90;;;;;;5964994;24;20274;-87
2022/01/22 14:47:21;;;;;;;11.93;1.77;;;19.10;45.90;;;;;;5966885;24;20173;-87
2022/01/22 14:50:06;;;;;;;11.10;1.50;;;19.10;46.90;;;;;;5962339;24;20176;-85
2022/01/22 14:52:32;;;;;;;10.18;2.00;;;19.20;46.30;;;;;;5994134;23;20227;-86
2022/01/22 14:55:08;;;;;;;14.02;1.88;;;19.10;46.90;;;;;;6020796;23;20171;-86
2022/01/22 14:57:37;;;;;;;8.00;1.42;;;19.20;47.00;;;;;;6017811;23;20222;-87
2022/01/22 15:00:09;;;;;;;20.50;1.95;;;19.20;47.50;;;;;;5974774;23;20250;-87
2022/01/22 15:02:36;;;;;;;9.98;1.67;;;19.20;47.30;;;;;;6000409;23;20252;-87
2022/01/22 15:05:02;;;;;;;11.43;1.80;;;19.10;48.60;;;;;;6022183;23;20157;-87
2022/01/22 15:07:32;;;;;;;13.82;1.83;;;19.10;49.00;;;;;;5973338;23;20222;-86